Airfield :







YOU CAN JOIN US ON...

 
LOGIN :

Register | Disclaimer

   EN    FR    IT 

 









Legend :    VFR   Marginal VFR   IFR   Intensive IFR   Very Intensive IFR
Visi :
Ceiling :
>= 8 km
>= 3000ft
5 to 8 km
1000 to 3000 ft
1500m to 5 km
500 to 1000 ft
800 to 1500m
200 to 500 ft
< 800m
< 200 ft
Symbols :   Thunderstorms  Fog  Heavy snow  Heavy precipitations  Wind > 20 kt






- Airport Elevation : 100 ft
- IATA code : PSM


KPSM - Portsmouth International at Pease

CURRENT METAR :
  • 222156Z 27009KT 10SM -RA BKN040 OVC085 19/18 A2970 RMK AO2A SLP059 P0005 T01890176

EXPIRED METARs :
  • 222056Z 28005KT 10SM -RA FEW030 OVC075 19/17 A2968 RMK AO2A SLP053 P0000 60000 T01880169 50000
  • 221956Z 27005KT 10SM -RA SCT030 OVC065 18/16 A2968 RMK AO2A RAB12 SLP053 P0000 T01830161
  • 221912Z 30009G17KT 10SM -RA OVC045 20/14 A2969 RMK AO2A RAB12 SLP056

TAF KPSM
Valid from the 22 at 19:00 until the 23 at 18:00 UTC


221915Z 2219/2318 29008KT P6SM BKN035
FM222000 30008KT 6SM -RA BKN030
FM222200 31005KT 5SM -RA BR OVC020
FM230400 30007KT P6SM BKN060
KZBW FIR / North America



MET'MAP, your aeronautical weather chart ! - Copyright ORBIFLY December 2007 - Disclaimer

ORBIFLY MET'MAP TEAM :

Programming & Development : Alexandra Zaïnal
Concept & original design : Baudouin d'Aumeries
Assistance for programming : Marc-Olivier Méhu
Technical & hardware support : Manuel Goepfert

Contact : metmap@orbifly.com




SOURCES & CREDITS :

   NOAA